Terminal Aerodrome Forecast
Issued by NWS Albany, NY

Home | Current Version | Previous Version | Text Only | Print | Product List | Glossary On
Versions: 1 2 3 4 5 6 7 8 9 10 11 12 13 14 15 16 17 18 19 20 21
000
FTUS41 KALY 182241 AAB
TAFGFL
TAF AMD
KGFL 182241Z 1823/1918 00000KT 2SM -RA BR BKN003 OVC006
      TEMPO 1823/1902 1SM -DZ BR OVC008
     FM190200 VRB03KT 2SM BR OVC005
     FM191500 20004KT P6SM OVC025=

USA.gov is the U.S. government's official web portal to all federal, state and local government web resources and services.